Time;durP1;ratioP1;P1;durP2;ratioP2;P2;SDS_P1;SDS_P2;PMS_P1;PMS_P2;Temp;Humidity;BMP_temperature;BMP_pressure;BME280_temperature;BME280_humidity;BME280_pressure;Samples;Min_cycle;Max_cycle;Signal;HPM_P1;HPM_P2
2023/10/21 00:02:02;;;;;;;;;;;11.50;87.40;;;;;;5108326;28;19983;-72
2023/10/21 00:04:28;;;;;;;;;;;11.40;87.30;;;;;;5090297;28;19908;-71
2023/10/21 00:06:54;;;;;;;;;;;11.50;87.40;;;;;;5108656;28;19926;-71
2023/10/21 00:09:20;;;;;;;;;;;11.50;87.40;;;;;;5108329;28;20371;-71
2023/10/21 00:11:45;;;;;;;;;;;11.50;87.90;;;;;;5108303;28;19908;-72
2023/10/21 00:14:11;;;;;;;;;;;11.50;87.40;;;;;;5108418;28;20004;-71
2023/10/21 00:16:37;;;;;;;;;;;11.50;87.40;;;;;;5108174;28;20316;-72
2023/10/21 00:19:03;;;;;;;;;;;11.40;87.30;;;;;;5110018;28;20461;-71
2023/10/21 00:21:29;;;;;;;;;;;11.40;87.40;;;;;;5112604;28;20406;-72
2023/10/21 00:23:54;;;;;;;;;;;11.40;87.40;;;;;;5094386;28;19990;-72
2023/10/21 00:26:20;;;;;;;;;;;11.40;87.40;;;;;;5112602;28;20388;-72
2023/10/21 00:28:48;;;;;;;;;;;11.40;87.40;;;;;;5112497;28;19908;-72
2023/10/21 00:31:14;;;;;;;;;;;11.40;87.50;;;;;;5094172;28;19919;-72
2023/10/21 00:33:39;;;;;;;;;;;11.50;87.40;;;;;;5112368;28;19916;-72
2023/10/21 00:36:05;;;;;;;;;;;11.40;87.30;;;;;;5112532;28;19912;-71
2023/10/21 00:38:31;;;;;;;;;;;11.40;87.30;;;;;;5112195;28;20351;-72
2023/10/21 00:41:00;;;;;;;;;;;11.40;87.30;;;;;;5093997;28;19912;-72
2023/10/21 00:43:35;;;;;;;;;;;11.40;87.40;;;;;;5112358;28;19912;-72
2023/10/21 00:46:03;;;;;;;;;;;11.30;87.40;;;;;;5112193;28;19913;-72
2023/10/21 00:48:29;;;;;;;;;;;11.30;87.40;;;;;;5112174;28;19994;-72
2023/10/21 00:50:55;;;;;;;;;;;11.40;87.50;;;;;;5111979;28;20002;-72
2023/10/21 00:53:21;;;;;;;;;;;11.40;87.50;;;;;;5111755;28;19923;-72
2023/10/21 00:55:46;;;;;;;;;;;11.40;87.30;;;;;;5112373;28;19923;-72
2023/10/21 00:58:13;;;;;;;;;;;11.40;87.80;;;;;;5076905;28;19912;-71
2023/10/21 01:00:38;;;;;;;;;;;11.40;87.50;;;;;;5111891;28;19965;-71
2023/10/21 01:03:04;;;;;;;;;;;11.40;87.50;;;;;;5093446;28;19990;-64
2023/10/21 01:05:30;;;;;;;;;;;11.40;87.50;;;;;;5093329;28;19923;-71
2023/10/21 01:07:59;;;;;;;;;;;11.40;87.50;;;;;;5111643;28;20252;-72
2023/10/21 01:10:25;;;;;;;;;;;11.40;87.40;;;;;;5112020;28;19960;-72
2023/10/21 01:12:51;;;;;;;;;;;11.40;87.40;;;;;;5112020;28;20352;-72
2023/10/21 01:15:17;;;;;;;;;;;11.50;87.40;;;;;;5111512;28;19914;-71
2023/10/21 01:17:48;;;;;;;;;;;11.50;87.40;;;;;;5111617;28;19919;-72
2023/10/21 01:20:13;;;;;;;;;;;11.40;87.20;;;;;;5111575;28;19913;-72
2023/10/21 01:22:39;;;;;;;;;;;11.40;87.30;;;;;;5111340;28;19982;-72
2023/10/21 01:25:06;;;;;;;;;;;11.30;87.40;;;;;;5111455;28;19965;-72
2023/10/21 01:27:32;;;;;;;;;;;11.30;87.40;;;;;;5111504;28;19962;-72
2023/10/21 01:29:57;;;;;;;;;;;11.40;87.50;;;;;;5110905;28;20332;-72
2023/10/21 01:32:24;;;;;;;;;;;11.30;87.40;;;;;;5111001;28;19916;-72
2023/10/21 01:34:50;;;;;;;;;;;11.40;87.40;;;;;;5076331;28;19976;-72
2023/10/21 01:37:15;;;;;;;;;;;11.30;87.40;;;;;;5092925;28;19912;-72
2023/10/21 01:39:41;;;;;;;;;;;11.30;87.40;;;;;;5111179;28;19912;-72
2023/10/21 01:42:07;;;;;;;;;;;11.40;87.40;;;;;;5111091;28;20356;-72
2023/10/21 01:44:32;;;;;;;;;;;11.40;87.40;;;;;;5110997;28;19912;-72
2023/10/21 01:46:58;;;;;;;;;;;11.40;87.40;;;;;;5111257;28;19912;-71
2023/10/21 01:49:24;;;;;;;;;;;11.40;87.30;;;;;;5111057;28;19912;-72
2023/10/21 01:51:50;;;;;;;;;;;11.40;87.20;;;;;;5110988;28;20198;-72
2023/10/21 01:54:15;;;;;;;;;;;11.40;87.20;;;;;;5092510;28;20010;-71
2023/10/21 01:56:41;;;;;;;;;;;11.40;87.30;;;;;;5111131;28;19915;-71
2023/10/21 01:59:08;;;;;;;;;;;11.40;87.30;;;;;;5110889;28;19923;-72
2023/10/21 02:01:34;;;;;;;;;;;11.30;87.20;;;;;;5092621;28;19912;-72
2023/10/21 02:04:00;;;;;;;;;;;11.30;87.20;;;;;;5110937;28;20318;-72
2023/10/21 02:06:26;;;;;;;;;;;11.30;87.20;;;;;;5092562;28;19927;-72
2023/10/21 02:08:53;;;;;;;;;;;11.30;87.20;;;;;;5092391;28;20382;-72
2023/10/21 02:11:24;;;;;;;;;;;11.20;87.10;;;;;;5110518;28;19981;-72
2023/10/21 02:13:50;;;;;;;;;;;11.20;87.20;;;;;;5110372;28;20022;-72
2023/10/21 02:16:15;;;;;;;;;;;11.20;87.20;;;;;;5092268;28;20342;-72
2023/10/21 02:18:41;;;;;;;;;;;11.20;87.20;;;;;;5092373;28;20351;-71
2023/10/21 02:21:07;;;;;;;;;;;11.20;87.10;;;;;;5110462;28;19958;-72
2023/10/21 02:23:33;;;;;;;;;;;11.20;87.00;;;;;;5110301;28;19911;-72
2023/10/21 02:25:59;;;;;;;;;;;11.20;86.90;;;;;;5110324;28;20442;-72
2023/10/21 02:28:25;;;;;;;;;;;11.10;87.00;;;;;;5110238;28;19914;-72
2023/10/21 02:30:50;;;;;;;;;;;11.00;87.00;;;;;;5110266;28;20010;-71
2023/10/21 02:33:16;;;;;;;;;;;10.90;87.00;;;;;;5110081;28;19923;-72
2023/10/21 02:35:42;;;;;;;;;;;10.80;87.00;;;;;;5091721;28;19961;-71
2023/10/21 02:38:08;;;;;;;;;;;10.80;87.20;;;;;;5110167;28;19911;-72
2023/10/21 02:40:34;;;;;;;;;;;10.70;87.10;;;;;;5110051;28;20356;-72
2023/10/21 02:42:59;;;;;;;;;;;10.60;87.10;;;;;;5108986;28;19969;-72
2023/10/21 02:45:26;;;;;;;;;;;10.60;87.20;;;;;;5091565;28;19934;-71
2023/10/21 02:47:52;;;;;;;;;;;10.50;87.20;;;;;;5109720;28;19907;-71
2023/10/21 02:50:17;;;;;;;;;;;10.50;87.30;;;;;;5091590;28;19934;-71
2023/10/21 02:52:43;;;;;;;;;;;10.40;87.20;;;;;;5109681;28;19912;-72
2023/10/21 02:55:11;;;;;;;;;;;10.40;87.20;;;;;;5109699;28;19957;-72
2023/10/21 02:57:37;;;;;;;;;;;10.30;87.30;;;;;;5109713;28;19919;-72
2023/10/21 03:00:10;;;;;;;;;;;10.30;87.30;;;;;;5109517;28;19912;-72
2023/10/21 03:02:37;;;;;;;;;;;10.30;87.30;;;;;;5090966;28;19961;-72
2023/10/21 03:05:03;;;;;;;;;;;10.20;87.30;;;;;;5109461;28;19922;-72
2023/10/21 03:07:29;;;;;;;;;;;10.20;87.30;;;;;;5109503;28;19912;-71
2023/10/21 03:09:55;;;;;;;;;;;10.20;87.30;;;;;;5109293;28;19916;-72
2023/10/21 03:12:20;;;;;;;;;;;10.20;87.30;;;;;;5109477;28;19912;-72
2023/10/21 03:14:46;;;;;;;;;;;10.20;87.30;;;;;;5091289;28;19915;-72
2023/10/21 03:17:13;;;;;;;;;;;10.20;87.20;;;;;;5109209;28;19958;-72
2023/10/21 03:19:38;;;;;;;;;;;10.10;87.20;;;;;;5109277;28;19918;-72
2023/10/21 03:22:04;;;;;;;;;;;10.10;87.30;;;;;;5109105;28;20376;-72
2023/10/21 03:24:29;;;;;;;;;;;10.10;87.40;;;;;;5109199;28;19916;-72
2023/10/21 03:26:55;;;;;;;;;;;10.10;87.40;;;;;;5108969;28;19912;-72
2023/10/21 03:29:21;;;;;;;;;;;10.10;87.30;;;;;;5091049;28;19912;-72
2023/10/21 03:31:46;;;;;;;;;;;10.10;87.30;;;;;;5109351;28;19922;-71
2023/10/21 03:34:12;;;;;;;;;;;10.10;87.30;;;;;;5108706;28;19929;-72
2023/10/21 03:36:37;;;;;;;;;;;10.00;87.30;;;;;;5109038;28;19964;-72
2023/10/21 03:39:03;;;;;;;;;;;10.00;87.30;;;;;;5108903;28;19957;-71
2023/10/21 03:41:28;;;;;;;;;;;10.00;87.30;;;;;;5109068;28;19908;-72
2023/10/21 03:43:54;;;;;;;;;;;10.00;87.20;;;;;;5108755;28;19916;-72
2023/10/21 03:46:20;;;;;;;;;;;10.00;87.20;;;;;;5108768;28;20375;-72
2023/10/21 03:48:46;;;;;;;;;;;10.00;87.10;;;;;;5090404;28;19922;-72
2023/10/21 03:51:12;;;;;;;;;;;10.00;87.20;;;;;;5108650;28;19947;-72
2023/10/21 03:53:41;;;;;;;;;;;9.90;87.20;;;;;;5108297;28;19918;-72
2023/10/21 03:56:08;;;;;;;;;;;9.90;87.30;;;;;;5108631;28;19929;-72
2023/10/21 03:58:33;;;;;;;;;;;9.90;87.30;;;;;;5108594;28;19961;-72
2023/10/21 04:00:59;;;;;;;;;;;10.00;87.30;;;;;;5108647;28;19919;-72
2023/10/21 04:03:25;;;;;;;;;;;10.00;87.20;;;;;;5090185;28;20018;-72
2023/10/21 04:05:53;;;;;;;;;;;10.00;87.10;;;;;;5108029;28;20149;-71
2023/10/21 04:08:19;;;;;;;;;;;10.00;87.60;;;;;;5108491;28;19912;-71
2023/10/21 04:10:45;;;;;;;;;;;9.90;87.10;;;;;;5108519;28;20365;-72
2023/10/21 04:13:11;;;;;;;;;;;9.90;87.00;;;;;;5108380;28;19969;-72
2023/10/21 04:15:37;;;;;;;;;;;9.90;87.00;;;;;;5108381;28;19919;-72
2023/10/21 04:18:02;;;;;;;;;;;9.80;86.80;;;;;;5108533;28;19916;-72
2023/10/21 04:20:28;;;;;;;;;;;9.70;86.80;;;;;;5108656;28;19912;-72
2023/10/21 04:22:53;;;;;;;;;;;9.60;87.30;;;;;;5108378;28;19947;-71
2023/10/21 04:25:19;;;;;;;;;;;9.60;86.90;;;;;;5108362;28;19973;-72
2023/10/21 04:27:44;;;;;;;;;;;9.50;86.80;;;;;;5108394;28;19981;-72
2023/10/21 04:30:10;;;;;;;;;;;9.50;86.90;;;;;;5108184;28;20390;-72
2023/10/21 04:32:36;;;;;;;;;;;9.50;86.90;;;;;;5108091;28;20256;-72
2023/10/21 04:35:04;;;;;;;;;;;9.50;86.90;;;;;;5108313;28;19919;-72
2023/10/21 04:37:30;;;;;;;;;;;9.50;86.90;;;;;;5108241;28;19916;-72
2023/10/21 04:39:56;;;;;;;;;;;9.50;87.00;;;;;;5108278;28;20316;-71
2023/10/21 04:42:23;;;;;;;;;;;9.60;87.00;;;;;;5108205;28;19951;-72
2023/10/21 04:44:48;;;;;;;;;;;9.70;87.00;;;;;;5108000;28;19969;-71
2023/10/21 04:47:15;;;;;;;;;;;9.70;86.90;;;;;;5108131;28;20004;-72
2023/10/21 04:49:44;;;;;;;;;;;9.80;87.00;;;;;;5108204;28;20007;-72
2023/10/21 04:52:12;;;;;;;;;;;9.80;86.90;;;;;;5107816;28;19981;-71
2023/10/21 04:54:38;;;;;;;;;;;9.80;86.80;;;;;;5090103;28;19937;-72
2023/10/21 04:57:03;;;;;;;;;;;9.90;86.80;;;;;;5107905;28;19998;-72
2023/10/21 04:59:29;;;;;;;;;;;9.90;86.70;;;;;;5108076;28;19938;-72
2023/10/21 05:01:55;;;;;;;;;;;9.90;86.70;;;;;;5107741;28;19969;-72
2023/10/21 05:04:21;;;;;;;;;;;9.90;86.60;;;;;;5108041;28;19926;-71
2023/10/21 05:06:47;;;;;;;;;;;9.90;86.70;;;;;;5110621;28;20016;-72
2023/10/21 05:09:12;;;;;;;;;;;9.80;86.70;;;;;;5111787;28;19930;-72
2023/10/21 05:11:38;;;;;;;;;;;9.80;86.70;;;;;;5111745;28;19916;-72
2023/10/21 05:14:03;;;;;;;;;;;9.80;86.70;;;;;;5093166;28;19981;-72
2023/10/21 05:16:29;;;;;;;;;;;9.70;87.00;;;;;;5111650;28;19915;-72
2023/10/21 05:18:55;;;;;;;;;;;9.70;86.70;;;;;;5111547;28;20265;-72
2023/10/21 05:21:20;;;;;;;;;;;9.80;86.80;;;;;;5111404;28;19958;-71
2023/10/21 05:23:46;;;;;;;;;;;9.70;86.70;;;;;;5111528;28;19965;-72
2023/10/21 05:26:12;;;;;;;;;;;9.80;86.80;;;;;;5111511;28;19965;-71
2023/10/21 05:28:37;;;;;;;;;;;9.70;86.80;;;;;;5111461;28;19915;-72
2023/10/21 05:31:03;;;;;;;;;;;9.80;86.80;;;;;;5111289;28;20002;-72
2023/10/21 05:33:29;;;;;;;;;;;9.80;86.90;;;;;;5111352;28;20377;-72
2023/10/21 05:35:57;;;;;;;;;;;9.80;86.80;;;;;;5093009;28;19912;-72
2023/10/21 05:38:24;;;;;;;;;;;9.70;86.60;;;;;;5111212;28;19968;-72
2023/10/21 05:40:50;;;;;;;;;;;9.70;86.60;;;;;;5111454;28;19918;-72
2023/10/21 05:43:15;;;;;;;;;;;9.70;86.60;;;;;;5110846;28;19911;-72
2023/10/21 05:45:41;;;;;;;;;;;9.70;86.70;;;;;;5111039;28;19907;-72
2023/10/21 05:48:06;;;;;;;;;;;9.70;86.70;;;;;;5111055;28;19912;-72
2023/10/21 05:50:32;;;;;;;;;;;9.70;86.80;;;;;;5111002;28;20372;-72
2023/10/21 05:52:58;;;;;;;;;;;9.70;86.70;;;;;;5110861;28;19915;-71
2023/10/21 05:55:23;;;;;;;;;;;9.70;86.80;;;;;;5111013;28;19916;-72
2023/10/21 05:57:49;;;;;;;;;;;9.70;86.80;;;;;;5110730;28;19919;-72
2023/10/21 06:00:15;;;;;;;;;;;9.80;86.80;;;;;;5110376;28;20006;-71
2023/10/21 06:02:41;;;;;;;;;;;9.80;86.80;;;;;;5110460;28;20003;-72
2023/10/21 06:05:06;;;;;;;;;;;9.80;86.80;;;;;;5110708;28;19911;-71
2023/10/21 06:07:32;;;;;;;;;;;9.80;86.80;;;;;;5110847;28;19911;-72
2023/10/21 06:09:58;;;;;;;;;;;9.80;86.80;;;;;;5110765;28;19912;-72
2023/10/21 06:12:24;;;;;;;;;;;9.80;86.70;;;;;;5110373;28;20402;-70
2023/10/21 06:14:50;;;;;;;;;;;9.80;86.70;;;;;;5110396;28;19994;-72
2023/10/21 06:17:16;;;;;;;;;;;9.80;86.70;;;;;;5110226;28;20396;-72
2023/10/21 06:19:43;;;;;;;;;;;9.80;86.70;;;;;;5092059;28;19947;-72
2023/10/21 06:22:09;;;;;;;;;;;9.70;86.60;;;;;;5110378;28;19961;-72
2023/10/21 06:24:34;;;;;;;;;;;9.70;86.60;;;;;;5110410;28;20347;-71
2023/10/21 06:27:01;;;;;;;;;;;9.60;86.50;;;;;;5110306;28;19911;-72
2023/10/21 06:29:26;;;;;;;;;;;9.50;86.50;;;;;;5092013;28;20013;-72
2023/10/21 06:31:52;;;;;;;;;;;9.50;86.50;;;;;;5110065;28;20183;-71
2023/10/21 06:34:17;;;;;;;;;;;9.40;86.40;;;;;;5091763;28;20343;-72
2023/10/21 06:36:43;;;;;;;;;;;9.30;86.50;;;;;;5110143;28;19916;-71
2023/10/21 06:39:08;;;;;;;;;;;9.30;86.60;;;;;;5110126;28;19919;-72
2023/10/21 06:41:34;;;;;;;;;;;9.20;86.50;;;;;;5091554;28;19912;-72
2023/10/21 06:44:00;;;;;;;;;;;9.20;86.50;;;;;;5109803;28;19953;-72
2023/10/21 06:46:27;;;;;;;;;;;9.20;86.50;;;;;;5109656;28;19912;-71
2023/10/21 06:48:53;;;;;;;;;;;9.20;86.40;;;;;;5109794;28;20371;-72
2023/10/21 06:51:19;;;;;;;;;;;9.20;86.40;;;;;;5109807;28;19988;-72
2023/10/21 06:53:45;;;;;;;;;;;9.10;86.30;;;;;;5109709;28;19953;-71
2023/10/21 06:56:11;;;;;;;;;;;9.10;86.30;;;;;;5108993;28;19912;-72
2023/10/21 06:58:37;;;;;;;;;;;9.00;86.30;;;;;;5109234;28;19915;-71
2023/10/21 07:01:03;;;;;;;;;;;9.10;86.40;;;;;;5091300;28;19948;-72
2023/10/21 07:03:29;;;;;;;;;;;9.00;86.30;;;;;;5109233;28;19977;-71
2023/10/21 07:05:54;;;;;;;;;;;9.00;86.30;;;;;;5091019;28;19931;-72
2023/10/21 07:08:20;;;;;;;;;;;9.00;86.70;;;;;;5109331;28;19912;-72
2023/10/21 07:10:46;;;;;;;;;;;9.00;86.20;;;;;;5109262;28;20383;-71
2023/10/21 07:13:11;;;;;;;;;;;8.90;86.20;;;;;;5109021;28;19912;-72
2023/10/21 07:15:37;;;;;;;;;;;8.90;86.20;;;;;;5109204;28;19961;-71
2023/10/21 07:18:03;;;;;;;;;;;8.90;86.20;;;;;;5109210;28;19923;-72
2023/10/21 07:20:28;;;;;;;;;;;8.90;86.30;;;;;;5108557;28;19912;-72
2023/10/21 07:22:54;;;;;;;;;;;8.90;86.30;;;;;;5107201;28;19941;-70
2023/10/21 07:25:19;;;;;;;;;;;9.00;86.30;;;;;;5107384;28;20446;-72
2023/10/21 07:27:46;;;;;;;;;;;9.10;86.40;;;;;;5088686;28;19916;-71
2023/10/21 07:30:11;;;;;;;;;;;9.20;86.40;;;;;;5106885;28;19933;-72
2023/10/21 07:32:37;;;;;;;;;;;9.20;86.40;;;;;;5107142;28;20041;-72
2023/10/21 07:35:03;;;;;;;;;;;9.30;86.50;;;;;;5107831;28;19923;-71
2023/10/21 07:37:30;;;;;;;;;;;9.40;86.50;;;;;;5089858;28;19915;-72
2023/10/21 07:39:58;;;;;;;;;;;9.50;86.60;;;;;;5107973;28;19916;-72
2023/10/21 07:42:23;;;;;;;;;;;9.50;86.60;;;;;;5108469;28;19964;-71
2023/10/21 07:44:49;;;;;;;;;;;9.60;86.70;;;;;;5108339;28;20143;-71
2023/10/21 07:47:15;;;;;;;;;;;9.70;86.80;;;;;;5108461;28;19916;-71
2023/10/21 07:49:40;;;;;;;;;;;9.80;86.80;;;;;;5108494;28;19935;-72
2023/10/21 07:52:06;;;;;;;;;;;9.80;86.80;;;;;;5090042;28;19919;-71
2023/10/21 07:54:32;;;;;;;;;;;9.90;86.80;;;;;;5108407;28;19968;-72
2023/10/21 07:56:58;;;;;;;;;;;10.00;86.80;;;;;;5108280;28;20449;-71
2023/10/21 07:59:27;;;;;;;;;;;10.00;86.70;;;;;;5108291;28;20003;-72
2023/10/21 08:01:54;;;;;;;;;;;10.10;86.70;;;;;;5107902;28;19916;-72
2023/10/21 08:04:22;;;;;;;;;;;10.20;86.60;;;;;;5108028;28;19959;-71
2023/10/21 08:06:48;;;;;;;;;;;10.20;86.60;;;;;;5089886;28;19953;-72
2023/10/21 08:09:15;;;;;;;;;;;10.20;86.70;;;;;;5106874;28;19920;-72
2023/10/21 08:11:42;;;;;;;;;;;10.30;86.90;;;;;;5107444;28;20008;-72
2023/10/21 08:14:08;;;;;;;;;;;10.30;87.30;;;;;;5107288;28;19912;-72
2023/10/21 08:16:34;;;;;;;;;;;10.30;86.90;;;;;;5101307;28;20266;-72
2023/10/21 08:19:00;;;;;;;;;;;10.40;86.90;;;;;;5103641;28;19916;-72
2023/10/21 08:21:26;;;;;;;;;;;10.50;87.00;;;;;;5091565;28;19912;-72
2023/10/21 08:23:52;;;;;;;;;;;10.60;86.90;;;;;;5109657;28;19935;-72
2023/10/21 08:26:17;;;;;;;;;;;10.60;86.90;;;;;;5109533;28;20325;-72
2023/10/21 08:28:43;;;;;;;;;;;10.60;87.00;;;;;;5109418;28;19912;-72
2023/10/21 08:31:08;;;;;;;;;;;10.70;86.90;;;;;;5109913;28;19956;-72
2023/10/21 08:33:34;;;;;;;;;;;10.80;86.90;;;;;;5109593;28;20400;-73
2023/10/21 08:36:01;;;;;;;;;;;10.80;86.80;;;;;;5109445;28;19916;-72
2023/10/21 08:38:27;;;;;;;;;;;10.90;86.80;;;;;;5114041;28;19912;-72
2023/10/21 08:40:53;;;;;;;;;;;11.00;86.80;;;;;;5130168;27;20006;-73
2023/10/21 08:43:19;;;;;;;;;;;11.10;86.80;;;;;;5133367;27;19960;-73
2023/10/21 08:45:45;;;;;;;;;;;11.20;86.80;;;;;;5133063;27;19914;-73
2023/10/21 08:48:11;;;;;;;;;;;11.20;86.70;;;;;;5097528;27;19964;-73
2023/10/21 08:50:38;;;;;;;;;;;11.20;86.90;;;;;;5132837;27;19908;-74
2023/10/21 08:53:06;;;;;;;;;;;11.30;86.90;;;;;;5127868;27;19957;-74
2023/10/21 08:55:35;;;;;;;;;;;11.40;86.90;;;;;;5111914;28;20002;-73
2023/10/21 08:58:01;;;;;;;;;;;11.50;86.80;;;;;;5112378;28;19914;-73
2023/10/21 09:00:27;;;;;;;;;;;11.60;86.80;;;;;;5112302;28;19923;-74
2023/10/21 09:02:52;;;;;;;;;;;11.60;86.80;;;;;;5092947;28;20364;-74
2023/10/21 09:05:18;;;;;;;;;;;11.60;86.70;;;;;;5093052;28;19923;-74
2023/10/21 09:07:47;;;;;;;;;;;11.60;86.80;;;;;;5110886;28;20377;-76
2023/10/21 09:10:13;;;;;;;;;;;11.60;86.80;;;;;;5110802;28;19908;-77
2023/10/21 09:12:39;;;;;;;;;;;11.50;86.80;;;;;;5111910;28;20018;-76
2023/10/21 09:15:06;;;;;;;;;;;11.40;87.10;;;;;;5112339;28;19955;-76
2023/10/21 09:17:34;;;;;;;;;;;11.50;87.60;;;;;;5112520;28;19912;-76
2023/10/21 09:19:59;;;;;;;;;;;11.70;87.70;;;;;;5113013;28;19915;-76
2023/10/21 09:22:27;;;;;;;;;;;11.80;87.80;;;;;;5112211;28;20453;-77
2023/10/21 09:25:09;;;;;;;;;;;12.00;87.60;;;;;;5094113;28;20072;-76
2023/10/21 09:27:35;;;;;;;;;;;12.10;87.40;;;;;;5112958;28;20313;-76
2023/10/21 09:30:00;;;;;;;;;;;12.10;87.20;;;;;;5094558;28;19988;-77
2023/10/21 09:32:29;;;;;;;;;;;12.20;87.20;;;;;;5112918;28;21493;-75
2023/10/21 09:35:11;;;;;;;;;;;12.20;87.10;;;;;;5092521;28;20382;-77
2023/10/21 09:37:37;;;;;;;;;;;12.30;87.10;;;;;;5107936;28;19912;-75
2023/10/21 09:40:03;;;;;;;;;;;12.30;87.10;;;;;;5094714;28;20327;-77
2023/10/21 09:42:28;;;;;;;;;;;12.30;87.40;;;;;;5093959;28;20443;-77
2023/10/21 09:44:55;;;;;;;;;;;12.60;87.60;;;;;;5112160;28;19943;-76
2023/10/21 09:47:21;;;;;;;;;;;12.80;87.50;;;;;;5093510;28;19915;-76
2023/10/21 09:49:48;;;;;;;;;;;12.90;87.40;;;;;;5093908;28;19912;-77
2023/10/21 09:52:15;;;;;;;;;;;13.00;87.20;;;;;;5111645;28;19914;-76
2023/10/21 09:55:03;;;;;;;;;;;13.00;87.00;;;;;;5093475;28;19920;-77
2023/10/21 09:57:29;;;;;;;;;;;13.10;87.30;;;;;;5111827;28;20282;-75
2023/10/21 09:59:56;;;;;;;;;;;13.30;87.50;;;;;;5111322;28;19912;-74
2023/10/21 10:02:22;;;;;;;;;;;13.40;87.30;;;;;;5093129;28;19965;-75
2023/10/21 10:04:49;;;;;;;;;;;13.40;87.60;;;;;;5111877;28;19912;-74
2023/10/21 10:07:17;;;;;;;;;;;13.30;87.00;;;;;;5111356;28;20283;-74
2023/10/21 10:09:44;;;;;;;;;;;13.20;86.90;;;;;;5111137;28;19912;-75
2023/10/21 10:12:12;;;;;;;;;;;13.10;87.20;;;;;;5092819;28;19927;-74
2023/10/21 10:14:37;;;;;;;;;;;13.10;87.70;;;;;;5110972;28;19912;-75
2023/10/21 10:17:06;;;;;;;;;;;13.20;87.70;;;;;;5092793;28;20052;-74
2023/10/21 10:19:42;;;;;;;;;;;13.20;87.50;;;;;;5111349;28;20279;-74
2023/10/21 10:22:20;;;;;;;;;;;13.00;87.20;;;;;;5110373;28;19957;-74
2023/10/21 10:24:50;;;;;;;;;;;13.00;87.50;;;;;;5110204;28;19908;-73
2023/10/21 10:27:16;;;;;;;;;;;13.00;87.60;;;;;;5091464;28;19930;-74
2023/10/21 10:29:42;;;;;;;;;;;13.10;87.70;;;;;;5108184;28;19916;-73
2023/10/21 10:32:14;;;;;;;;;;;13.20;87.80;;;;;;5091445;28;19919;-72
2023/10/21 10:34:52;;;;;;;;;;;13.30;87.40;;;;;;5110077;28;19916;-74
2023/10/21 10:37:29;;;;;;;;;;;13.30;87.50;;;;;;5110876;28;20244;-74
2023/10/21 10:39:54;;;;;;;;;;;13.20;87.40;;;;;;5092719;28;19908;-74
2023/10/21 10:42:20;;;;;;;;;;;13.20;87.40;;;;;;5110716;28;20053;-74
2023/10/21 10:44:46;;;;;;;;;;;13.20;87.40;;;;;;5092521;28;19953;-74
2023/10/21 10:47:12;;;;;;;;;;;13.20;87.20;;;;;;5111115;28;20410;-74
2023/10/21 10:49:53;;;;;;;;;;;13.10;87.20;;;;;;5111011;28;19947;-74
2023/10/21 10:52:35;;;;;;;;;;;13.00;87.20;;;;;;5110797;28;19930;-75
2023/10/21 10:55:03;;;;;;;;;;;13.00;87.50;;;;;;5110839;28;19912;-75
2023/10/21 10:57:29;;;;;;;;;;;13.00;87.40;;;;;;5092477;28;19923;-76
2023/10/21 10:59:55;;;;;;;;;;;13.00;87.50;;;;;;5111037;28;20385;-75
2023/10/21 11:02:20;;;;;;;;;;;13.00;87.50;;;;;;5110822;28;20015;-73
2023/10/21 11:04:47;;;;;;;;;;;13.00;87.70;;;;;;5091287;28;19911;-76
2023/10/21 11:07:12;;;;;;;;;;;13.20;88.00;;;;;;5110381;28;19907;-72
2023/10/21 11:09:38;;;;;;;;;;;13.40;88.00;;;;;;5103701;28;19930;-73
2023/10/21 11:12:04;;;;;;;;;;;13.50;87.70;;;;;;5104716;28;19908;-74
2023/10/21 11:14:29;;;;;;;;;;;13.50;87.40;;;;;;5109580;28;19915;-74
2023/10/21 11:16:55;;;;;;;;;;;13.40;87.00;;;;;;5109679;28;19918;-74
2023/10/21 11:19:22;;;;;;;;;;;13.30;87.00;;;;;;5109202;28;19912;-74
2023/10/21 11:21:48;;;;;;;;;;;13.30;87.20;;;;;;5091557;28;20236;-74
2023/10/21 11:24:14;;;;;;;;;;;13.30;87.20;;;;;;5109697;28;19921;-74
2023/10/21 11:26:40;;;;;;;;;;;13.40;87.70;;;;;;5109945;28;19908;-78
2023/10/21 11:29:06;;;;;;;;;;;14.20;90.00;;;;;;5091903;28;19912;-74
2023/10/21 11:31:33;;;;;;;;;;;15.50;90.60;;;;;;5091728;28;19908;-74
2023/10/21 11:34:05;;;;;;;;;;;16.80;90.50;;;;;;5109553;28;19916;-76
2023/10/21 11:36:31;;;;;;;;;;;17.20;89.50;;;;;;5109938;28;19967;-75
2023/10/21 11:38:57;;;;;;;;;;;17.10;88.60;;;;;;5109403;28;20010;-75
2023/10/21 11:41:23;;;;;;;;;;;16.90;88.30;;;;;;5109562;28;19924;-75
2023/10/21 11:43:51;;;;;;;;;;;16.60;87.70;;;;;;5109832;28;20069;-64
2023/10/21 11:46:17;;;;;;;;;;;16.20;87.60;;;;;;5091335;28;20377;-76
2023/10/21 11:48:43;;;;;;;;;;;15.90;87.50;;;;;;5109493;28;19912;-76
2023/10/21 11:51:08;;;;;;;;;;;15.60;87.40;;;;;;5109376;28;19912;-76
2023/10/21 11:53:34;;;;;;;;;;;15.40;87.30;;;;;;5107970;28;19916;-75
2023/10/21 11:56:52;;;;;;;;;;;15.40;88.80;;;;;;5109413;28;19912;-76
2023/10/21 12:20:26;;;;;;;;;;;16.30;88.20;;;;;;5109632;28;19912;-76
2023/10/21 12:38:24;;;;;;;;;;;16.10;88.30;;;;;;5108493;28;19916;-74
2023/10/21 12:43:48;;;;;;;;;;;16.90;89.90;;;;;;5089494;28;19934;-73
2023/10/21 12:46:25;;;;;;;;;;;17.30;89.50;;;;;;5079135;28;19946;-74
2023/10/21 12:48:56;;;;;;;;;;;17.40;88.90;;;;;;5107097;28;19994;-74
2023/10/21 12:51:22;;;;;;;;;;;17.30;88.20;;;;;;5093025;28;19914;-76
2023/10/21 12:53:49;;;;;;;;;;;17.10;87.80;;;;;;5088248;28;20415;-73
2023/10/21 12:56:14;;;;;;;;;;;16.80;88.10;;;;;;5088347;28;20348;-74
2023/10/21 12:58:41;;;;;;;;;;;16.50;88.20;;;;;;5088473;28;19908;-74
2023/10/21 13:01:10;;;;;;;;;;;16.40;88.10;;;;;;5088235;28;19923;-74
2023/10/21 13:03:37;;;;;;;;;;;16.10;87.60;;;;;;5088086;28;19920;-74
2023/10/21 13:06:05;;;;;;;;;;;15.80;87.40;;;;;;5070410;28;20002;-74
2023/10/21 13:08:31;;;;;;;;;;;15.60;87.70;;;;;;5088949;28;19916;-74
2023/10/21 13:10:57;;;;;;;;;;;15.60;88.10;;;;;;5088584;28;19919;-75
2023/10/21 13:13:23;;;;;;;;;;;15.70;88.40;;;;;;5071089;28;20014;-73
2023/10/21 13:15:49;;;;;;;;;;;15.80;88.10;;;;;;5108609;28;19907;-74
2023/10/21 13:18:18;;;;;;;;;;;15.80;88.10;;;;;;5090331;28;19935;-74
2023/10/21 13:20:44;;;;;;;;;;;15.70;88.10;;;;;;5107818;28;19943;-74
2023/10/21 13:23:10;;;;;;;;;;;15.60;88.00;;;;;;5089762;28;19947;-73
2023/10/21 13:25:36;;;;;;;;;;;15.60;87.90;;;;;;5097323;28;19989;-72
2023/10/21 13:28:05;;;;;;;;;;;15.60;87.70;;;;;;5090918;28;19970;-74
2023/10/21 13:30:31;;;;;;;;;;;15.60;87.60;;;;;;5110491;28;19925;-71
2023/10/21 13:32:57;;;;;;;;;;;15.50;87.50;;;;;;5111323;28;19920;-73
2023/10/21 13:35:22;;;;;;;;;;;15.40;87.50;;;;;;5093092;28;20482;-73
2023/10/21 13:37:49;;;;;;;;;;;15.40;87.50;;;;;;5111524;28;19912;-72
2023/10/21 13:40:14;;;;;;;;;;;15.40;87.40;;;;;;5111592;28;19931;-73
2023/10/21 13:42:51;;;;;;;;;;;15.30;87.30;;;;;;5111417;28;19951;-72
2023/10/21 13:45:20;;;;;;;;;;;15.20;87.20;;;;;;5111452;28;19931;-73
2023/10/21 13:47:46;;;;;;;;;;;15.20;87.10;;;;;;5093184;28;19907;-73
2023/10/21 13:50:15;;;;;;;;;;;15.10;87.20;;;;;;5111567;28;20270;-73
2023/10/21 13:52:46;;;;;;;;;;;15.00;87.20;;;;;;5111155;28;19980;-73
2023/10/21 13:55:14;;;;;;;;;;;15.00;87.00;;;;;;5092803;28;19911;-73
2023/10/21 13:57:41;;;;;;;;;;;14.90;87.10;;;;;;5111530;28;19946;-74
2023/10/21 14:00:25;;;;;;;;;;;14.90;87.20;;;;;;5111316;28;19912;-73
2023/10/21 14:02:51;;;;;;;;;;;15.00;87.40;;;;;;5092893;28;20006;-74
2023/10/21 14:05:17;;;;;;;;;;;15.00;87.30;;;;;;5092644;28;19914;-74
2023/10/21 14:07:42;;;;;;;;;;;15.00;87.10;;;;;;5111188;28;19907;-74
2023/10/21 14:10:08;;;;;;;;;;;15.00;87.00;;;;;;5110633;28;19954;-73
2023/10/21 14:12:34;;;;;;;;;;;14.90;86.90;;;;;;5092458;28;19912;-74
2023/10/21 14:15:10;;;;;;;;;;;14.80;87.10;;;;;;5110188;28;19923;-74
2023/10/21 14:17:36;;;;;;;;;;;14.70;87.20;;;;;;5111150;28;20348;-73
2023/10/21 14:20:04;;;;;;;;;;;14.70;87.30;;;;;;5111071;28;19908;-72
2023/10/21 14:22:30;;;;;;;;;;;14.70;87.30;;;;;;5111158;28;20060;-74
2023/10/21 14:24:55;;;;;;;;;;;14.70;87.20;;;;;;5110413;28;19994;-74
2023/10/21 14:27:22;;;;;;;;;;;14.70;87.40;;;;;;5111180;28;19987;-73
2023/10/21 14:29:47;;;;;;;;;;;14.70;87.40;;;;;;5092941;28;20000;-74
2023/10/21 14:32:16;;;;;;;;;;;14.80;87.30;;;;;;5110716;28;19939;-74
2023/10/21 14:34:41;;;;;;;;;;;14.80;87.20;;;;;;5092098;28;19911;-73
2023/10/21 14:37:08;;;;;;;;;;;14.80;87.10;;;;;;5110890;28;20002;-74
2023/10/21 14:39:34;;;;;;;;;;;14.80;87.10;;;;;;5111330;28;19957;-74
2023/10/21 14:41:59;;;;;;;;;;;14.80;87.00;;;;;;5110627;28;19941;-75
2023/10/21 14:44:25;;;;;;;;;;;14.80;87.00;;;;;;5110383;28;19912;-73
2023/10/21 14:46:52;;;;;;;;;;;14.80;87.00;;;;;;5110430;28;19911;-72
2023/10/21 14:49:17;;;;;;;;;;;14.80;87.00;;;;;;5111223;28;19998;-73
2023/10/21 14:51:43;;;;;;;;;;;14.80;87.00;;;;;;5109464;28;19994;-73
2023/10/21 14:54:09;;;;;;;;;;;14.90;87.20;;;;;;5101628;28;19919;-72
2023/10/21 14:56:35;;;;;;;;;;;14.80;87.00;;;;;;5106256;28;19912;-71
2023/10/21 14:59:00;;;;;;;;;;;14.80;86.90;;;;;;5070223;28;19924;-72